sensor_id;sensor_type;location;lat;lon;timestamp;pressure;altitude;pressure_sealevel;temperature;humidity
20620;BME280;10469;42.720;23.252;2022-12-18T00:02:10;95658.63;;;5.62;100.00
20620;BME280;10469;42.720;23.252;2022-12-18T00:04:36;95657.06;;;5.53;100.00
20620;BME280;10469;42.720;23.252;2022-12-18T00:07:01;95658.34;;;5.57;100.00
20620;BME280;10469;42.720;23.252;2022-12-18T00:09:27;95646.88;;;5.57;100.00
20620;BME280;10469;42.720;23.252;2022-12-18T00:11:52;95666.19;;;5.65;100.00
20620;BME280;10469;42.720;23.252;2022-12-18T00:14:17;95658.22;;;5.65;100.00
20620;BME280;10469;42.720;23.252;2022-12-18T00:16:45;95657.91;;;5.39;100.00
20620;BME280;10469;42.720;23.252;2022-12-18T00:19:10;95653.88;;;5.13;100.00
20620;BME280;10469;42.720;23.252;2022-12-18T00:21:36;95682.41;;;5.49;100.00
20620;BME280;10469;42.720;23.252;2022-12-18T00:24:01;95685.69;;;5.51;100.00
20620;BME280;10469;42.720;23.252;2022-12-18T00:26:29;95687.31;;;5.52;100.00
20620;BME280;10469;42.720;23.252;2022-12-18T00:29:02;95688.81;;;5.54;100.00
20620;BME280;10469;42.720;23.252;2022-12-18T00:31:28;95693.59;;;5.44;100.00
20620;BME280;10469;42.720;23.252;2022-12-18T00:33:54;95698.53;;;5.33;100.00
20620;BME280;10469;42.720;23.252;2022-12-18T00:36:23;95697.16;;;5.51;100.00
20620;BME280;10469;42.720;23.252;2022-12-18T00:38:49;95704.69;;;5.33;100.00
20620;BME280;10469;42.720;23.252;2022-12-18T00:41:16;95684.13;;;5.12;100.00
20620;BME280;10469;42.720;23.252;2022-12-18T00:44:02;95701.38;;;5.16;100.00
20620;BME280;10469;42.720;23.252;2022-12-18T00:46:27;95704.16;;;5.23;100.00
20620;BME280;10469;42.720;23.252;2022-12-18T00:48:53;95679.09;;;5.17;100.00
20620;BME280;10469;42.720;23.252;2022-12-18T00:51:18;95708.44;;;5.24;100.00
20620;BME280;10469;42.720;23.252;2022-12-18T00:53:44;95693.75;;;5.13;100.00
20620;BME280;10469;42.720;23.252;2022-12-18T00:56:09;95696.50;;;5.05;100.00
20620;BME280;10469;42.720;23.252;2022-12-18T00:58:34;95727.41;;;5.06;100.00
20620;BME280;10469;42.720;23.252;2022-12-18T01:01:00;95700.44;;;4.94;100.00
20620;BME280;10469;42.720;23.252;2022-12-18T01:03:25;95721.50;;;4.96;100.00
20620;BME280;10469;42.720;23.252;2022-12-18T01:05:51;95719.31;;;4.99;100.00
20620;BME280;10469;42.720;23.252;2022-12-18T01:08:16;95711.69;;;4.82;100.00
20620;BME280;10469;42.720;23.252;2022-12-18T01:10:41;95711.94;;;4.72;100.00
20620;BME280;10469;42.720;23.252;2022-12-18T01:13:07;95727.22;;;4.70;100.00
20620;BME280;10469;42.720;23.252;2022-12-18T01:15:33;95736.34;;;4.75;100.00
20620;BME280;10469;42.720;23.252;2022-12-18T01:17:58;95737.41;;;4.66;100.00
20620;BME280;10469;42.720;23.252;2022-12-18T01:20:23;95734.38;;;4.69;100.00
20620;BME280;10469;42.720;23.252;2022-12-18T01:22:49;95741.19;;;4.72;100.00
20620;BME280;10469;42.720;23.252;2022-12-18T01:25:14;95737.03;;;4.69;100.00
20620;BME280;10469;42.720;23.252;2022-12-18T01:27:40;95735.88;;;4.72;100.00
20620;BME280;10469;42.720;23.252;2022-12-18T01:30:06;95731.91;;;4.68;100.00
20620;BME280;10469;42.720;23.252;2022-12-18T01:32:32;95742.81;;;4.73;100.00
20620;BME280;10469;42.720;23.252;2022-12-18T01:34:57;95751.75;;;4.80;100.00
20620;BME280;10469;42.720;23.252;2022-12-18T01:37:23;95747.03;;;4.67;100.00
20620;BME280;10469;42.720;23.252;2022-12-18T01:39:48;95747.13;;;4.74;100.00
20620;BME280;10469;42.720;23.252;2022-12-18T01:42:15;95759.00;;;4.63;100.00
20620;BME280;10469;42.720;23.252;2022-12-18T01:44:59;95758.13;;;4.71;100.00
20620;BME280;10469;42.720;23.252;2022-12-18T01:50:22;95759.59;;;4.73;100.00
20620;BME280;10469;42.720;23.252;2022-12-18T01:52:51;95761.91;;;4.53;100.00
20620;BME280;10469;42.720;23.252;2022-12-18T01:55:20;95764.56;;;4.53;100.00
20620;BME280;10469;42.720;23.252;2022-12-18T01:57:47;95769.63;;;4.63;100.00
20620;BME280;10469;42.720;23.252;2022-12-18T02:00:16;95762.59;;;4.70;100.00
20620;BME280;10469;42.720;23.252;2022-12-18T02:02:43;95754.81;;;4.46;100.00
20620;BME280;10469;42.720;23.252;2022-12-18T02:05:10;95768.09;;;4.69;100.00
20620;BME280;10469;42.720;23.252;2022-12-18T02:13:24;95763.06;;;4.74;100.00
20620;BME280;10469;42.720;23.252;2022-12-18T02:18:21;95783.31;;;4.52;100.00
20620;BME280;10469;42.720;23.252;2022-12-18T02:24:17;95779.56;;;4.46;100.00
20620;BME280;10469;42.720;23.252;2022-12-18T02:26:49;95788.88;;;4.42;100.00
20620;BME280;10469;42.720;23.252;2022-12-18T02:29:51;95775.97;;;4.31;100.00
20620;BME280;10469;42.720;23.252;2022-12-18T02:32:24;95779.94;;;4.35;100.00
20620;BME280;10469;42.720;23.252;2022-12-18T02:34:51;95796.31;;;4.47;100.00
20620;BME280;10469;42.720;23.252;2022-12-18T02:37:19;95804.66;;;4.36;100.00
20620;BME280;10469;42.720;23.252;2022-12-18T02:39:47;95792.59;;;4.02;100.00
20620;BME280;10469;42.720;23.252;2022-12-18T02:42:14;95797.16;;;4.16;100.00
20620;BME280;10469;42.720;23.252;2022-12-18T02:44:47;95804.75;;;4.50;100.00
20620;BME280;10469;42.720;23.252;2022-12-18T02:47:14;95785.84;;;4.22;100.00
20620;BME280;10469;42.720;23.252;2022-12-18T02:52:33;95801.88;;;4.06;100.00
20620;BME280;10469;42.720;23.252;2022-12-18T03:00:56;95816.22;;;4.20;100.00
20620;BME280;10469;42.720;23.252;2022-12-18T03:03:29;95809.91;;;4.21;100.00
20620;BME280;10469;42.720;23.252;2022-12-18T03:06:03;95806.28;;;4.14;100.00
20620;BME280;10469;42.720;23.252;2022-12-18T03:08:35;95810.72;;;4.21;100.00
20620;BME280;10469;42.720;23.252;2022-12-18T03:11:13;95805.34;;;4.07;100.00
20620;BME280;10469;42.720;23.252;2022-12-18T03:13:48;95813.19;;;4.23;100.00
20620;BME280;10469;42.720;23.252;2022-12-18T03:16:22;95814.22;;;4.22;100.00
20620;BME280;10469;42.720;23.252;2022-12-18T03:18:53;95807.00;;;4.08;100.00
20620;BME280;10469;42.720;23.252;2022-12-18T03:21:23;95819.47;;;4.30;100.00
20620;BME280;10469;42.720;23.252;2022-12-18T03:23:52;95812.03;;;4.25;100.00
20620;BME280;10469;42.720;23.252;2022-12-18T03:26:21;95826.44;;;4.31;100.00
20620;BME280;10469;42.720;23.252;2022-12-18T03:28:57;95829.91;;;4.32;100.00
20620;BME280;10469;42.720;23.252;2022-12-18T03:31:25;95828.31;;;4.22;100.00
20620;BME280;10469;42.720;23.252;2022-12-18T03:34:06;95845.53;;;4.26;100.00
20620;BME280;10469;42.720;23.252;2022-12-18T03:36:34;95831.97;;;4.21;100.00
20620;BME280;10469;42.720;23.252;2022-12-18T03:39:00;95847.91;;;4.21;100.00
20620;BME280;10469;42.720;23.252;2022-12-18T03:41:28;95848.31;;;4.10;100.00
20620;BME280;10469;42.720;23.252;2022-12-18T03:52:26;95853.63;;;4.02;100.00
20620;BME280;10469;42.720;23.252;2022-12-18T03:54:55;95850.97;;;4.02;100.00
20620;BME280;10469;42.720;23.252;2022-12-18T03:57:25;95864.56;;;4.07;100.00
20620;BME280;10469;42.720;23.252;2022-12-18T03:59:55;95863.56;;;4.08;100.00
20620;BME280;10469;42.720;23.252;2022-12-18T04:02:22;95866.56;;;3.97;100.00
20620;BME280;10469;42.720;23.252;2022-12-18T04:04:51;95866.06;;;4.01;100.00
20620;BME280;10469;42.720;23.252;2022-12-18T04:07:19;95862.28;;;3.88;100.00
20620;BME280;10469;42.720;23.252;2022-12-18T04:09:45;95866.66;;;3.81;100.00
20620;BME280;10469;42.720;23.252;2022-12-18T04:12:11;95866.56;;;3.97;100.00
20620;BME280;10469;42.720;23.252;2022-12-18T04:14:37;95856.47;;;3.92;100.00
20620;BME280;10469;42.720;23.252;2022-12-18T04:17:03;95867.75;;;3.94;100.00
20620;BME280;10469;42.720;23.252;2022-12-18T04:19:28;95861.50;;;3.79;100.00
20620;BME280;10469;42.720;23.252;2022-12-18T04:21:54;95877.91;;;3.74;100.00
20620;BME280;10469;42.720;23.252;2022-12-18T04:24:19;95897.78;;;3.95;100.00
20620;BME280;10469;42.720;23.252;2022-12-18T04:26:45;95889.22;;;3.68;100.00
20620;BME280;10469;42.720;23.252;2022-12-18T04:29:10;95884.56;;;3.70;100.00
20620;BME280;10469;42.720;23.252;2022-12-18T04:31:36;95899.81;;;3.85;100.00
20620;BME280;10469;42.720;23.252;2022-12-18T04:34:01;95905.44;;;3.82;100.00
20620;BME280;10469;42.720;23.252;2022-12-18T04:36:27;95898.84;;;3.61;100.00
20620;BME280;10469;42.720;23.252;2022-12-18T04:38:52;95897.84;;;3.62;100.00
20620;BME280;10469;42.720;23.252;2022-12-18T04:41:18;95905.97;;;3.69;100.00
20620;BME280;10469;42.720;23.252;2022-12-18T04:43:43;95924.34;;;3.70;100.00
20620;BME280;10469;42.720;23.252;2022-12-18T04:46:09;95925.03;;;3.64;100.00
20620;BME280;10469;42.720;23.252;2022-12-18T04:48:35;95916.75;;;3.67;100.00
20620;BME280;10469;42.720;23.252;2022-12-18T04:51:00;95912.91;;;3.62;100.00
20620;BME280;10469;42.720;23.252;2022-12-18T04:53:26;95926.53;;;3.59;100.00
20620;BME280;10469;42.720;23.252;2022-12-18T04:56:06;95921.56;;;3.47;100.00
20620;BME280;10469;42.720;23.252;2022-12-18T04:58:32;95904.16;;;3.37;100.00
20620;BME280;10469;42.720;23.252;2022-12-18T05:00:57;95936.28;;;3.58;100.00
20620;BME280;10469;42.720;23.252;2022-12-18T05:03:22;95922.56;;;3.63;100.00
20620;BME280;10469;42.720;23.252;2022-12-18T05:05:51;95940.25;;;3.70;100.00
20620;BME280;10469;42.720;23.252;2022-12-18T05:08:17;95943.91;;;3.69;100.00
20620;BME280;10469;42.720;23.252;2022-12-18T05:10:42;95949.56;;;3.66;100.00
20620;BME280;10469;42.720;23.252;2022-12-18T05:13:08;95961.16;;;3.82;100.00
20620;BME280;10469;42.720;23.252;2022-12-18T05:15:34;95972.59;;;3.74;100.00
20620;BME280;10469;42.720;23.252;2022-12-18T05:18:00;95969.13;;;3.65;100.00
20620;BME280;10469;42.720;23.252;2022-12-18T05:20:26;95963.31;;;3.70;100.00
20620;BME280;10469;42.720;23.252;2022-12-18T05:22:52;95972.78;;;3.81;100.00
20620;BME280;10469;42.720;23.252;2022-12-18T05:25:19;95980.06;;;3.70;100.00
20620;BME280;10469;42.720;23.252;2022-12-18T05:27:45;95978.59;;;3.60;100.00
20620;BME280;10469;42.720;23.252;2022-12-18T05:30:11;95983.38;;;3.64;100.00
20620;BME280;10469;42.720;23.252;2022-12-18T05:32:36;95980.06;;;3.62;100.00
20620;BME280;10469;42.720;23.252;2022-12-18T05:35:03;95978.59;;;3.60;100.00
20620;BME280;10469;42.720;23.252;2022-12-18T05:37:28;95995.66;;;3.65;100.00
20620;BME280;10469;42.720;23.252;2022-12-18T05:39:54;95999.47;;;3.46;100.00
20620;BME280;10469;42.720;23.252;2022-12-18T05:42:19;96007.75;;;3.60;100.00
20620;BME280;10469;42.720;23.252;2022-12-18T05:44:45;96006.25;;;3.49;100.00
20620;BME280;10469;42.720;23.252;2022-12-18T05:47:10;95927.50;;;3.00;100.00
20620;BME280;10469;42.720;23.252;2022-12-18T05:49:35;96008.06;;;3.48;100.00
20620;BME280;10469;42.720;23.252;2022-12-18T05:52:01;95995.31;;;3.44;100.00
20620;BME280;10469;42.720;23.252;2022-12-18T05:54:27;96009.88;;;3.32;100.00
20620;BME280;10469;42.720;23.252;2022-12-18T05:56:53;96006.91;;;3.43;100.00
20620;BME280;10469;42.720;23.252;2022-12-18T05:59:19;96008.53;;;3.27;100.00
20620;BME280;10469;42.720;23.252;2022-12-18T06:01:44;96023.34;;;3.46;100.00
20620;BME280;10469;42.720;23.252;2022-12-18T06:04:10;96032.13;;;3.63;100.00
20620;BME280;10469;42.720;23.252;2022-12-18T06:06:35;96030.94;;;3.58;100.00
20620;BME280;10469;42.720;23.252;2022-12-18T06:09:03;96044.56;;;3.55;100.00
20620;BME280;10469;42.720;23.252;2022-12-18T06:11:34;96045.38;;;3.55;100.00
20620;BME280;10469;42.720;23.252;2022-12-18T06:14:00;96045.88;;;3.67;100.00
20620;BME280;10469;42.720;23.252;2022-12-18T06:16:30;96003.75;;;3.31;100.00
20620;BME280;10469;42.720;23.252;2022-12-18T06:18:57;96027.47;;;3.49;100.00
20620;BME280;10469;42.720;23.252;2022-12-18T06:21:22;96034.44;;;3.50;100.00
20620;BME280;10469;42.720;23.252;2022-12-18T06:23:48;96016.66;;;3.26;100.00
20620;BME280;10469;42.720;23.252;2022-12-18T06:26:14;96018.00;;;3.30;100.00
20620;BME280;10469;42.720;23.252;2022-12-18T06:28:40;96025.78;;;3.32;100.00
20620;BME280;10469;42.720;23.252;2022-12-18T06:31:06;96051.34;;;3.65;100.00
20620;BME280;10469;42.720;23.252;2022-12-18T06:33:32;96061.31;;;3.96;100.00
20620;BME280;10469;42.720;23.252;2022-12-18T06:36:10;96063.44;;;4.41;100.00
20620;BME280;10469;42.720;23.252;2022-12-18T06:38:37;96040.75;;;4.06;100.00
20620;BME280;10469;42.720;23.252;2022-12-18T06:41:11;96056.31;;;4.17;100.00
20620;BME280;10469;42.720;23.252;2022-12-18T06:43:36;96065.28;;;3.92;100.00
20620;BME280;10469;42.720;23.252;2022-12-18T06:46:03;96063.28;;;3.69;100.00
20620;BME280;10469;42.720;23.252;2022-12-18T06:48:29;96072.25;;;3.93;100.00
20620;BME280;10469;42.720;23.252;2022-12-18T06:50:54;96074.91;;;3.93;100.00
20620;BME280;10469;42.720;23.252;2022-12-18T06:53:19;96060.34;;;3.81;100.00
20620;BME280;10469;42.720;23.252;2022-12-18T06:55:45;96075.53;;;3.62;100.00
20620;BME280;10469;42.720;23.252;2022-12-18T06:58:10;96067.94;;;3.67;100.00
20620;BME280;10469;42.720;23.252;2022-12-18T07:00:36;96077.22;;;3.88;100.00
20620;BME280;10469;42.720;23.252;2022-12-18T07:03:01;96078.72;;;3.74;100.00
20620;BME280;10469;42.720;23.252;2022-12-18T07:05:26;96085.50;;;3.52;100.00
20620;BME280;10469;42.720;23.252;2022-12-18T07:07:52;96087.81;;;3.55;100.00
20620;BME280;10469;42.720;23.252;2022-12-18T07:10:17;96095.06;;;3.45;100.00
20620;BME280;10469;42.720;23.252;2022-12-18T07:12:43;96096.41;;;3.49;100.00
20620;BME280;10469;42.720;23.252;2022-12-18T07:15:09;96095.41;;;3.42;100.00
20620;BME280;10469;42.720;23.252;2022-12-18T07:17:34;96104.34;;;3.41;100.00
20620;BME280;10469;42.720;23.252;2022-12-18T07:20:00;96097.88;;;3.35;100.00
20620;BME280;10469;42.720;23.252;2022-12-18T07:22:26;96092.25;;;3.30;100.00
20620;BME280;10469;42.720;23.252;2022-12-18T10:26:16;96169.09;;;4.87;100.00
20620;BME280;10469;42.720;23.252;2022-12-18T10:28:43;96172.56;;;4.95;100.00
20620;BME280;10469;42.720;23.252;2022-12-18T10:31:22;96172.06;;;5.00;100.00
20620;BME280;10469;42.720;23.252;2022-12-18T10:33:47;96164.63;;;5.35;100.00
20620;BME280;10469;42.720;23.252;2022-12-18T10:36:13;96174.22;;;5.44;100.00
20620;BME280;10469;42.720;23.252;2022-12-18T10:38:39;96183.28;;;5.26;100.00
20620;BME280;10469;42.720;23.252;2022-12-18T10:43:47;96158.78;;;5.39;100.00
20620;BME280;10469;42.720;23.252;2022-12-18T10:46:18;96177.56;;;5.46;100.00
20620;BME280;10469;42.720;23.252;2022-12-18T10:53:52;96176.84;;;5.13;100.00
20620;BME280;10469;42.720;23.252;2022-12-18T10:56:20;96148.84;;;4.86;100.00
20620;BME280;10469;42.720;23.252;2022-12-18T10:58:55;96164.75;;;5.02;100.00
20620;BME280;10469;42.720;23.252;2022-12-18T11:01:21;96163.13;;;4.93;100.00
20620;BME280;10469;42.720;23.252;2022-12-18T11:06:20;96167.13;;;4.81;100.00
20620;BME280;10469;42.720;23.252;2022-12-18T11:09:32;96173.78;;;4.68;100.00
20620;BME280;10469;42.720;23.252;2022-12-18T11:11:52;96157.72;;;5.17;100.00
20620;BME280;10469;42.720;23.252;2022-12-18T11:14:24;96161.03;;;5.19;100.00
20620;BME280;10469;42.720;23.252;2022-12-18T11:16:51;96174.38;;;5.11;100.00
20620;BME280;10469;42.720;23.252;2022-12-18T11:21:51;96163.75;;;4.95;100.00
20620;BME280;10469;42.720;23.252;2022-12-18T11:24:26;96167.75;;;4.91;100.00
20620;BME280;10469;42.720;23.252;2022-12-18T11:26:53;96175.16;;;5.20;100.00
20620;BME280;10469;42.720;23.252;2022-12-18T11:29:24;96171.69;;;5.19;100.00
20620;BME280;10469;42.720;23.252;2022-12-18T11:31:55;96181.16;;;5.14;100.00
20620;BME280;10469;42.720;23.252;2022-12-18T11:34:37;96179.09;;;4.85;100.00
20620;BME280;10469;42.720;23.252;2022-12-18T11:37:04;96179.06;;;4.93;100.00
20620;BME280;10469;42.720;23.252;2022-12-18T11:39:46;96175.41;;;4.94;100.00
20620;BME280;10469;42.720;23.252;2022-12-18T11:47:55;96173.00;;;5.23;100.00
20620;BME280;10469;42.720;23.252;2022-12-18T11:52:55;96167.41;;;5.10;100.00
20620;BME280;10469;42.720;23.252;2022-12-18T12:00:50;96170.13;;;4.77;100.00
20620;BME280;10469;42.720;23.252;2022-12-18T12:06:08;96163.44;;;4.98;100.00
20620;BME280;10469;42.720;23.252;2022-12-18T12:14:38;96177.38;;;5.00;100.00
20620;BME280;10469;42.720;23.252;2022-12-18T12:25:19;96180.78;;;5.25;100.00
20620;BME280;10469;42.720;23.252;2022-12-18T12:38:57;96173.19;;;5.14;100.00
20620;BME280;10469;42.720;23.252;2022-12-18T12:41:26;96162.06;;;5.10;100.00
20620;BME280;10469;42.720;23.252;2022-12-18T12:44:19;96178.19;;;5.09;100.00
20620;BME280;10469;42.720;23.252;2022-12-18T12:46:48;96186.97;;;5.09;100.00
20620;BME280;10469;42.720;23.252;2022-12-18T12:49:17;96170.03;;;5.18;100.00
20620;BME280;10469;42.720;23.252;2022-12-18T12:51:47;96176.19;;;5.19;100.00
20620;BME280;10469;42.720;23.252;2022-12-18T12:54:19;96190.53;;;4.85;100.00
20620;BME280;10469;42.720;23.252;2022-12-18T12:57:18;96183.69;;;5.07;100.00
20620;BME280;10469;42.720;23.252;2022-12-18T12:59:51;96179.59;;;4.80;100.00
20620;BME280;10469;42.720;23.252;2022-12-18T13:02:33;96201.16;;;4.85;100.00
20620;BME280;10469;42.720;23.252;2022-12-18T13:05:21;96200.66;;;4.98;100.00
20620;BME280;10469;42.720;23.252;2022-12-18T13:08:00;96190.03;;;4.82;100.00
20620;BME280;10469;42.720;23.252;2022-12-18T13:10:35;96204.47;;;4.87;100.00
20620;BME280;10469;42.720;23.252;2022-12-18T13:16:02;96208.97;;;4.70;100.00
20620;BME280;10469;42.720;23.252;2022-12-18T13:18:28;96212.63;;;4.86;100.00
20620;BME280;10469;42.720;23.252;2022-12-18T13:25:53;96227.06;;;4.99;100.00
20620;BME280;10469;42.720;23.252;2022-12-18T13:36:43;96229.22;;;5.04;100.00
20620;BME280;10469;42.720;23.252;2022-12-18T13:41:48;96223.56;;;4.99;100.00
20620;BME280;10469;42.720;23.252;2022-12-18T13:44:34;96230.22;;;4.87;100.00
20620;BME280;10469;42.720;23.252;2022-12-18T13:47:04;96220.41;;;4.87;100.00
20620;BME280;10469;42.720;23.252;2022-12-18T13:49:43;96237.56;;;4.93;100.00
20620;BME280;10469;42.720;23.252;2022-12-18T13:52:18;96250.84;;;4.93;100.00
20620;BME280;10469;42.720;23.252;2022-12-18T13:54:48;96245.19;;;4.55;100.00
20620;BME280;10469;42.720;23.252;2022-12-18T13:57:33;96222.78;;;4.49;100.00
20620;BME280;10469;42.720;23.252;2022-12-18T13:59:59;96248.50;;;4.65;100.00
20620;BME280;10469;42.720;23.252;2022-12-18T14:02:44;96247.03;;;4.63;100.00
20620;BME280;10469;42.720;23.252;2022-12-18T14:05:28;96238.88;;;4.56;100.00
20620;BME280;10469;42.720;23.252;2022-12-18T14:08:00;96256.47;;;4.57;100.00
20620;BME280;10469;42.720;23.252;2022-12-18T14:10:27;96248.03;;;4.45;100.00
20620;BME280;10469;42.720;23.252;2022-12-18T14:12:53;96258.78;;;4.36;100.00
20620;BME280;10469;42.720;23.252;2022-12-18T14:18:12;96245.84;;;4.41;100.00
20620;BME280;10469;42.720;23.252;2022-12-18T14:20:43;96254.31;;;4.52;100.00
20620;BME280;10469;42.720;23.252;2022-12-18T14:23:36;96266.09;;;4.42;100.00
20620;BME280;10469;42.720;23.252;2022-12-18T14:26:18;96263.47;;;4.50;100.00
20620;BME280;10469;42.720;23.252;2022-12-18T14:28:45;96254.97;;;4.38;100.00
20620;BME280;10469;42.720;23.252;2022-12-18T14:31:26;96262.78;;;4.48;100.00
20620;BME280;10469;42.720;23.252;2022-12-18T14:33:52;96257.09;;;4.26;100.00
20620;BME280;10469;42.720;23.252;2022-12-18T14:36:24;96267.91;;;4.25;100.00
20620;BME280;10469;42.720;23.252;2022-12-18T14:38:51;96270.38;;;4.26;100.00
20620;BME280;10469;42.720;23.252;2022-12-18T14:41:20;96265.41;;;4.23;100.00
20620;BME280;10469;42.720;23.252;2022-12-18T14:43:49;96258.13;;;4.34;100.00
20620;BME280;10469;42.720;23.252;2022-12-18T14:49:27;96263.41;;;4.25;100.00
20620;BME280;10469;42.720;23.252;2022-12-18T14:51:56;96256.13;;;4.19;100.00
20620;BME280;10469;42.720;23.252;2022-12-18T14:54:46;96266.88;;;4.18;100.00
20620;BME280;10469;42.720;23.252;2022-12-18T14:57:22;96273.38;;;4.23;100.00
20620;BME280;10469;42.720;23.252;2022-12-18T14:59:50;96274.03;;;4.25;100.00
20620;BME280;10469;42.720;23.252;2022-12-18T15:02:25;96277.00;;;4.14;100.00
20620;BME280;10469;42.720;23.252;2022-12-18T15:05:04;96271.56;;;4.24;100.00
20620;BME280;10469;42.720;23.252;2022-12-18T15:07:48;96271.09;;;4.37;100.00
20620;BME280;10469;42.720;23.252;2022-12-18T15:13:15;96276.03;;;4.15;100.00
20620;BME280;10469;42.720;23.252;2022-12-18T15:15:45;96273.00;;;4.18;100.00
20620;BME280;10469;42.720;23.252;2022-12-18T15:18:15;96284.31;;;4.20;100.00
20620;BME280;10469;42.720;23.252;2022-12-18T15:23:52;96282.31;;;4.06;100.00
20620;BME280;10469;42.720;23.252;2022-12-18T15:26:19;96283.66;;;4.10;100.00
20620;BME280;10469;42.720;23.252;2022-12-18T15:28:51;96296.41;;;4.07;100.00
20620;BME280;10469;42.720;23.252;2022-12-18T15:33:44;96302.16;;;3.94;100.00
20620;BME280;10469;42.720;23.252;2022-12-18T15:36:15;96288.69;;;3.87;100.00
20620;BME280;10469;42.720;23.252;2022-12-18T15:38:43;96283.44;;;4.03;100.00
20620;BME280;10469;42.720;23.252;2022-12-18T15:41:13;96297.56;;;4.12;100.00
20620;BME280;10469;42.720;23.252;2022-12-18T15:43:39;96311.81;;;4.03;100.00
20620;BME280;10469;42.720;23.252;2022-12-18T15:46:33;96317.13;;;4.03;100.00
20620;BME280;10469;42.720;23.252;2022-12-18T15:48:59;96314.53;;;4.19;100.00
20620;BME280;10469;42.720;23.252;2022-12-18T15:51:28;96324.88;;;3.96;100.00
20620;BME280;10469;42.720;23.252;2022-12-18T15:53:56;96329.31;;;3.88;100.00
20620;BME280;10469;42.720;23.252;2022-12-18T15:56:23;96318.41;;;3.91;100.00
20620;BME280;10469;42.720;23.252;2022-12-18T15:59:16;96324.00;;;3.88;100.00
20620;BME280;10469;42.720;23.252;2022-12-18T16:01:43;96321.34;;;3.53;100.00
20620;BME280;10469;42.720;23.252;2022-12-18T16:04:14;96323.66;;;3.83;100.00
20620;BME280;10469;42.720;23.252;2022-12-18T16:06:40;96345.50;;;4.02;100.00
20620;BME280;10469;42.720;23.252;2022-12-18T16:09:06;96347.63;;;3.65;100.00
20620;BME280;10469;42.720;23.252;2022-12-18T16:11:33;96356.47;;;3.73;100.00
20620;BME280;10469;42.720;23.252;2022-12-18T16:16:37;96343.91;;;3.84;100.00
20620;BME280;10469;42.720;23.252;2022-12-18T16:19:02;96336.84;;;3.66;100.00
20620;BME280;10469;42.720;23.252;2022-12-18T16:21:28;96346.94;;;3.89;100.00
20620;BME280;10469;42.720;23.252;2022-12-18T16:23:53;96340.94;;;3.87;100.00
20620;BME280;10469;42.720;23.252;2022-12-18T16:26:18;96347.47;;;3.66;100.00
20620;BME280;10469;42.720;23.252;2022-12-18T16:28:44;96359.59;;;3.69;100.00
20620;BME280;10469;42.720;23.252;2022-12-18T16:31:11;96355.16;;;3.77;100.00
20620;BME280;10469;42.720;23.252;2022-12-18T16:33:36;96360.13;;;3.72;100.00
20620;BME280;10469;42.720;23.252;2022-12-18T16:36:01;96355.53;;;3.57;100.00
20620;BME280;10469;42.720;23.252;2022-12-18T16:38:27;96369.09;;;3.53;100.00
20620;BME280;10469;42.720;23.252;2022-12-18T16:40:52;96353.72;;;3.31;100.00
20620;BME280;10469;42.720;23.252;2022-12-18T16:43:36;96366.44;;;3.27;100.00
20620;BME280;10469;42.720;23.252;2022-12-18T16:46:02;96374.63;;;3.34;100.00
20620;BME280;10469;42.720;23.252;2022-12-18T16:48:27;96369.38;;;3.42;100.00
20620;BME280;10469;42.720;23.252;2022-12-18T16:51:04;96390.25;;;3.63;100.00
20620;BME280;10469;42.720;23.252;2022-12-18T16:53:31;96401.50;;;3.65;100.00
20620;BME280;10469;42.720;23.252;2022-12-18T16:55:57;96396.16;;;3.57;100.00
20620;BME280;10469;42.720;23.252;2022-12-18T16:58:22;96393.84;;;3.62;100.00
20620;BME280;10469;42.720;23.252;2022-12-18T17:00:48;96411.47;;;3.63;100.00
20620;BME280;10469;42.720;23.252;2022-12-18T17:03:13;96414.34;;;3.52;100.00
20620;BME280;10469;42.720;23.252;2022-12-18T17:05:39;96409.41;;;3.31;100.00
20620;BME280;10469;42.720;23.252;2022-12-18T17:08:05;96425.91;;;3.43;100.00
20620;BME280;10469;42.720;23.252;2022-12-18T17:10:30;96428.13;;;3.30;100.00
20620;BME280;10469;42.720;23.252;2022-12-18T17:12:56;96427.03;;;3.40;100.00
20620;BME280;10469;42.720;23.252;2022-12-18T17:15:21;96416.97;;;3.26;100.00
20620;BME280;10469;42.720;23.252;2022-12-18T17:17:47;96434.63;;;3.35;100.00
20620;BME280;10469;42.720;23.252;2022-12-18T17:20:12;96409.50;;;3.21;100.00
20620;BME280;10469;42.720;23.252;2022-12-18T17:22:38;96433.94;;;2.97;100.00
20620;BME280;10469;42.720;23.252;2022-12-18T17:25:04;96418.94;;;3.06;100.00
20620;BME280;10469;42.720;23.252;2022-12-18T17:27:29;96442.88;;;3.14;100.00
20620;BME280;10469;42.720;23.252;2022-12-18T17:29:55;96438.66;;;3.04;100.00
20620;BME280;10469;42.720;23.252;2022-12-18T17:32:20;96434.03;;;3.06;100.00
20620;BME280;10469;42.720;23.252;2022-12-18T17:34:46;96434.81;;;2.98;100.00
20620;BME280;10469;42.720;23.252;2022-12-18T17:37:11;96444.78;;;3.22;100.00
20620;BME280;10469;42.720;23.252;2022-12-18T17:39:38;96444.25;;;3.18;100.00
20620;BME280;10469;42.720;23.252;2022-12-18T17:42:03;96435.38;;;3.10;100.00
20620;BME280;10469;42.720;23.252;2022-12-18T17:44:29;96440.94;;;3.16;100.00
20620;BME280;10469;42.720;23.252;2022-12-18T17:46:54;96434.28;;;3.12;100.00
20620;BME280;10469;42.720;23.252;2022-12-18T17:49:20;96452.66;;;3.14;100.00
20620;BME280;10469;42.720;23.252;2022-12-18T17:51:45;96444.16;;;3.10;100.00
20620;BME280;10469;42.720;23.252;2022-12-18T17:54:11;96436.84;;;3.04;100.00
20620;BME280;10469;42.720;23.252;2022-12-18T17:56:37;96437.00;;;3.03;100.00
20620;BME280;10469;42.720;23.252;2022-12-18T17:59:03;96427.75;;;2.89;100.00
20620;BME280;10469;42.720;23.252;2022-12-18T18:01:29;96436.84;;;3.04;100.00
20620;BME280;10469;42.720;23.252;2022-12-18T18:03:54;96446.38;;;2.97;100.00